Time;durP1;ratioP1;P1;durP2;ratioP2;P2;SDS_P1;SDS_P2;PMS_P1;PMS_P2;Temp;Humidity;BMP_temperature;BMP_pressure;BME280_temperature;BME280_humidity;BME280_pressure;Samples;Min_cycle;Max_cycle;Signal;HPM_P1;HPM_P2
2023/05/22 00:00:36;;;;;;;;;;;;;;;20.90;47.09;100733.87;103562;1289;63577;-82
2023/05/22 00:03:02;;;;;;;;;;;;;;;20.90;47.12;100734.13;103546;1292;62210;-83
2023/05/22 00:05:29;;;;;;;;;;;;;;;20.90;47.24;100724.84;103529;1290;62819;-83
2023/05/22 00:07:55;;;;;;;;;;;;;;;20.90;46.96;100730.27;103537;1292;62118;-83
2023/05/22 00:10:20;;;;;;;;;;;;;;;20.90;47.28;100720.90;103523;1289;62204;-83
2023/05/22 00:12:46;;;;;;;;;;;;;;;20.89;47.42;100720.37;103374;1292;63472;-82
2023/05/22 00:15:11;;;;;;;;;;;;;;;20.90;47.17;100720.94;103575;1291;62174;-82
2023/05/22 00:17:37;;;;;;;;;;;;;;;20.89;47.25;100721.84;103524;1292;62187;-83
2023/05/22 00:20:05;;;;;;;;;;;;;;;20.88;47.13;100717.88;103597;1286;62133;-82
2023/05/22 00:22:34;;;;;;;;;;;;;;;20.89;47.27;100714.70;103603;1288;63773;-82
2023/05/22 00:25:03;;;;;;;;;;;;;;;20.89;47.10;100715.59;103492;1290;62184;-84
2023/05/22 00:27:28;;;;;;;;;;;;;;;20.88;47.40;100719.21;103541;1291;62156;-83
2023/05/22 00:29:54;;;;;;;;;;;;;;;20.89;47.36;100712.76;103479;1300;62254;-84
2023/05/22 00:32:19;;;;;;;;;;;;;;;20.89;47.09;100716.48;103391;1284;63461;-83
2023/05/22 00:34:45;;;;;;;;;;;;;;;20.88;47.19;100710.11;103570;1286;63539;-82
2023/05/22 00:37:10;;;;;;;;;;;;;;;20.88;47.11;100713.42;103639;1288;62203;-83
2023/05/22 00:39:36;;;;;;;;;;;;;;;20.89;47.13;100708.76;103573;1289;62272;-83
2023/05/22 00:42:01;;;;;;;;;;;;;;;20.87;47.20;100707.65;103323;1289;62283;-83
2023/05/22 00:44:28;;;;;;;;;;;;;;;20.88;47.31;100702.96;103535;1288;62236;-82
2023/05/22 00:46:53;;;;;;;;;;;;;;;20.88;47.28;100701.18;103521;1286;63352;-83
2023/05/22 00:49:19;;;;;;;;;;;;;;;20.88;47.26;100700.64;103642;1286;62172;-83
2023/05/22 00:51:47;;;;;;;;;;;;;;;20.88;47.36;100698.67;103502;1286;62368;-83
2023/05/22 00:54:13;;;;;;;;;;;;;;;20.87;47.20;100696.03;103371;1285;71557;-83
2023/05/22 00:56:39;;;;;;;;;;;;;;;20.87;47.21;100694.96;103612;1288;62281;-82
2023/05/22 00:59:05;;;;;;;;;;;;;;;20.87;47.17;100692.48;103660;1288;63295;-81
2023/05/22 01:01:32;;;;;;;;;;;;;;;20.87;47.35;100695.33;103455;1291;62111;-83
2023/05/22 01:04:00;;;;;;;;;;;;;;;20.87;47.28;100695.32;103435;1294;62263;-83
2023/05/22 01:06:26;;;;;;;;;;;;;;;20.87;47.29;100694.11;103490;1286;76919;-83
2023/05/22 01:08:52;;;;;;;;;;;;;;;20.87;47.26;100693.37;103440;1291;62250;-83
2023/05/22 01:11:23;;;;;;;;;;;;;;;20.87;47.40;100698.39;103523;1290;62287;-83
2023/05/22 01:14:02;;;;;;;;;;;;;;;20.87;47.26;100696.95;103547;1285;72499;-83
2023/05/22 01:16:45;;;;;;;;;;;;;;;20.87;47.25;100696.24;103659;1289;75293;-82
2023/05/22 01:19:14;;;;;;;;;;;;;;;20.86;47.44;100695.39;103651;1286;62204;-83
2023/05/22 01:21:46;;;;;;;;;;;;;;;20.86;47.28;100695.20;103617;1288;62131;-83
2023/05/22 01:24:24;;;;;;;;;;;;;;;20.87;47.38;100693.38;103317;1286;71585;-83
2023/05/22 01:26:53;;;;;;;;;;;;;;;20.86;47.31;100687.34;103652;1285;75062;-84
2023/05/22 01:29:30;;;;;;;;;;;;;;;20.86;47.41;100687.34;103581;1291;63357;-83
2023/05/22 01:31:57;;;;;;;;;;;;;;;20.86;47.44;100685.20;103518;1290;63390;-83
2023/05/22 01:34:22;;;;;;;;;;;;;;;20.86;47.32;100683.05;103434;1291;72328;-83
2023/05/22 01:36:48;;;;;;;;;;;;;;;20.86;47.45;100680.93;103592;1288;62130;-83
2023/05/22 01:39:14;;;;;;;;;;;;;;;20.86;47.39;100679.86;103566;1285;62292;-82
2023/05/22 01:41:39;;;;;;;;;;;;;;;20.86;47.31;100678.08;103481;1292;62251;-83
2023/05/22 01:44:05;;;;;;;;;;;;;;;20.86;47.26;100677.53;103681;1284;62206;-83
2023/05/22 01:46:30;;;;;;;;;;;;;;;20.86;47.38;100677.88;103490;1285;73502;-83
2023/05/22 01:48:56;;;;;;;;;;;;;;;20.86;47.43;100678.98;103484;1286;62188;-83
2023/05/22 01:51:33;;;;;;;;;;;;;;;20.85;47.47;100677.58;103617;1284;62281;-84
2023/05/22 01:54:04;;;;;;;;;;;;;;;20.85;47.49;100681.68;103590;1286;62198;-83
2023/05/22 01:56:36;;;;;;;;;;;;;;;20.85;47.44;100674.92;103678;1288;73520;-83
2023/05/22 01:59:32;;;;;;;;;;;;;;;20.85;47.40;100678.29;103572;1286;76270;-83
2023/05/22 02:02:00;;;;;;;;;;;;;;;20.85;47.46;100684.02;102972;1297;62223;-82
2023/05/22 02:04:26;;;;;;;;;;;;;;;20.85;47.39;100683.29;102890;1296;62325;-83
2023/05/22 02:06:52;;;;;;;;;;;;;;;20.85;47.45;100682.23;102859;1297;62261;-83
2023/05/22 02:09:17;;;;;;;;;;;;;;;20.85;47.44;100685.47;102952;1291;62489;-82
2023/05/22 02:11:43;;;;;;;;;;;;;;;20.85;47.48;100683.33;102926;1297;62231;-83
2023/05/22 02:14:11;;;;;;;;;;;;;;;20.84;47.46;100683.70;102970;1297;62244;-83
2023/05/22 02:16:36;;;;;;;;;;;;;;;20.84;47.47;100683.54;102909;1291;62332;-83
2023/05/22 02:19:05;;;;;;;;;;;;;;;20.84;47.41;100681.02;102946;1292;62255;-83
2023/05/22 02:21:33;;;;;;;;;;;;;;;20.85;47.43;100683.50;102853;1297;76440;-83
2023/05/22 02:23:59;;;;;;;;;;;;;;;20.84;47.54;100683.02;102899;1297;63204;-82
2023/05/22 02:26:24;;;;;;;;;;;;;;;20.85;47.54;100684.23;102896;1291;62288;-83
2023/05/22 02:28:50;;;;;;;;;;;;;;;20.85;47.52;100683.70;102884;1297;62294;-82
2023/05/22 02:31:17;;;;;;;;;;;;;;;20.85;47.60;100685.50;103010;1293;62326;-83
2023/05/22 02:33:43;;;;;;;;;;;;;;;20.84;47.38;100685.53;103003;1297;62208;-82
2023/05/22 02:36:09;;;;;;;;;;;;;;;20.84;47.46;100683.22;102975;1292;62238;-83
2023/05/22 02:38:35;;;;;;;;;;;;;;;20.83;47.38;100678.78;103115;1290;62544;-83
2023/05/22 02:41:01;;;;;;;;;;;;;;;20.84;47.51;100680.14;103492;1291;62121;-82
2023/05/22 02:43:27;;;;;;;;;;;;;;;20.84;47.54;100681.78;103511;1289;76021;-83
2023/05/22 02:45:52;;;;;;;;;;;;;;;20.84;47.54;100685.39;103473;1284;62182;-82
2023/05/22 02:48:18;;;;;;;;;;;;;;;20.83;47.50;100687.57;103478;1291;63370;-83
2023/05/22 02:50:43;;;;;;;;;;;;;;;20.83;47.49;100684.69;103532;1291;62143;-83
2023/05/22 02:53:09;;;;;;;;;;;;;;;20.83;47.46;100680.95;103499;1285;62178;-83
2023/05/22 02:55:35;;;;;;;;;;;;;;;20.83;47.48;100684.00;103491;1290;62531;-83
2023/05/22 02:58:01;;;;;;;;;;;;;;;20.83;47.37;100680.98;103390;1290;62261;-84
2023/05/22 03:00:26;;;;;;;;;;;;;;;20.83;47.50;100683.85;103488;1285;62124;-83
2023/05/22 03:02:55;;;;;;;;;;;;;;;20.84;47.43;100685.19;103691;1288;62133;-83
2023/05/22 03:05:20;;;;;;;;;;;;;;;20.83;47.51;100682.22;103573;1285;76352;-84
2023/05/22 03:07:47;;;;;;;;;;;;;;;20.82;47.64;100678.86;103471;1286;62255;-83
2023/05/22 03:10:13;;;;;;;;;;;;;;;20.83;47.53;100680.65;103562;1286;62284;-82
2023/05/22 03:12:39;;;;;;;;;;;;;;;20.83;47.56;100683.46;103555;1291;62260;-83
2023/05/22 03:15:05;;;;;;;;;;;;;;;20.83;47.51;100682.77;103635;1286;62139;-83
2023/05/22 03:17:31;;;;;;;;;;;;;;;20.83;47.53;100683.80;103384;1293;62285;-82
2023/05/22 03:19:57;;;;;;;;;;;;;;;20.83;47.53;100681.99;103618;1286;62174;-83
2023/05/22 03:22:23;;;;;;;;;;;;;;;20.83;47.46;100682.57;103378;1285;62443;-83
2023/05/22 03:24:48;;;;;;;;;;;;;;;20.83;47.42;100684.70;103588;1285;62185;-82
2023/05/22 03:27:18;;;;;;;;;;;;;;;20.83;47.50;100685.41;103548;1286;76194;-82
2023/05/22 03:29:44;;;;;;;;;;;;;;;20.83;47.57;100690.24;103631;1288;62114;-82
2023/05/22 03:32:10;;;;;;;;;;;;;;;20.84;47.43;100684.97;103582;1286;63340;-83
2023/05/22 03:34:35;;;;;;;;;;;;;;;20.83;47.66;100686.46;103497;1291;62236;-83
2023/05/22 03:37:10;;;;;;;;;;;;;;;20.84;47.62;100685.54;103561;1286;76032;-83
2023/05/22 03:39:38;;;;;;;;;;;;;;;20.85;47.69;100689.60;103486;1286;62118;-83
2023/05/22 03:42:04;;;;;;;;;;;;;;;20.84;47.54;100685.88;103543;1285;62620;-83
2023/05/22 03:44:30;;;;;;;;;;;;;;;20.85;47.53;100692.28;103642;1288;62306;-82
2023/05/22 03:46:55;;;;;;;;;;;;;;;20.85;47.58;100689.04;103499;1291;62130;-83
2023/05/22 03:49:21;;;;;;;;;;;;;;;20.85;47.55;100691.19;103487;1286;62306;-82
2023/05/22 03:51:49;;;;;;;;;;;;;;;20.85;47.56;100693.33;103596;1284;62221;-83
2023/05/22 03:54:15;;;;;;;;;;;;;;;20.86;47.71;100690.97;103576;1288;62206;-83
2023/05/22 03:56:41;;;;;;;;;;;;;;;20.85;47.58;100691.87;103562;1288;62207;-83
2023/05/22 03:59:07;;;;;;;;;;;;;;;20.86;47.63;100696.35;103546;1286;62520;-82
2023/05/22 04:01:32;;;;;;;;;;;;;;;20.86;47.69;100695.92;103541;1291;62322;-82
2023/05/22 04:03:58;;;;;;;;;;;;;;;20.86;47.63;100691.67;103411;1287;62247;-82
2023/05/22 04:06:24;;;;;;;;;;;;;;;20.86;47.59;100695.39;103661;1284;62234;-82
2023/05/22 04:08:50;;;;;;;;;;;;;;;20.86;47.52;100693.09;103514;1291;62229;-82
2023/05/22 04:11:15;;;;;;;;;;;;;;;20.87;47.61;100693.58;103570;1284;62241;-82
2023/05/22 04:13:41;;;;;;;;;;;;;;;20.86;47.55;100695.59;103739;1285;62409;-83
2023/05/22 04:16:07;;;;;;;;;;;;;;;20.86;47.57;100695.98;103540;1291;62197;-83
2023/05/22 04:18:32;;;;;;;;;;;;;;;20.86;47.64;100699.90;103590;1286;62799;-84
2023/05/22 04:20:58;;;;;;;;;;;;;;;20.86;47.56;100704.55;103630;1285;76345;-83
2023/05/22 04:23:24;;;;;;;;;;;;;;;20.85;47.49;100705.31;103663;1285;62277;-83
2023/05/22 04:25:50;;;;;;;;;;;;;;;20.85;47.58;100702.11;103540;1286;62182;-83
2023/05/22 04:28:21;;;;;;;;;;;;;;;20.85;47.57;100698.71;103658;1286;62595;-82
2023/05/22 04:30:48;;;;;;;;;;;;;;;20.84;47.56;100699.45;103661;1285;76369;-83
2023/05/22 04:33:15;;;;;;;;;;;;;;;20.85;47.48;100700.86;103635;1286;62173;-83
2023/05/22 04:35:41;;;;;;;;;;;;;;;20.84;47.57;100699.45;103649;1285;63068;-83
2023/05/22 04:38:06;;;;;;;;;;;;;;;20.84;47.57;100703.94;103618;1291;62118;-82
2023/05/22 04:40:42;;;;;;;;;;;;;;;20.84;47.68;100702.86;103352;1293;75230;-83
2023/05/22 04:43:08;;;;;;;;;;;;;;;20.85;47.49;100703.02;103278;1292;62249;-83
2023/05/22 04:45:34;;;;;;;;;;;;;;;20.84;47.45;100706.05;103319;1288;63327;-84
2023/05/22 04:48:03;;;;;;;;;;;;;;;20.85;47.56;100709.06;103134;1289;72360;-83
2023/05/22 04:50:31;;;;;;;;;;;;;;;20.84;47.57;100710.92;103061;1293;62863;-83
2023/05/22 04:53:02;;;;;;;;;;;;;;;20.85;47.39;100712.12;103160;1288;62102;-83
2023/05/22 04:55:32;;;;;;;;;;;;;;;20.85;47.32;100713.40;103787;1288;62449;-81
2023/05/22 04:57:58;;;;;;;;;;;;;;;20.84;47.51;100713.23;103345;1293;73732;-83
2023/05/22 05:00:27;;;;;;;;;;;;;;;20.85;47.56;100716.23;103142;1288;62281;-83
2023/05/22 05:02:53;;;;;;;;;;;;;;;20.85;47.47;100715.33;103235;1288;62253;-83
2023/05/22 05:05:18;;;;;;;;;;;;;;;20.86;47.41;100717.42;103323;1288;62290;-83
2023/05/22 05:07:46;;;;;;;;;;;;;;;20.86;47.52;100718.13;103231;1288;63442;-82
2023/05/22 05:10:11;;;;;;;;;;;;;;;20.86;47.35;100716.71;103376;1288;62202;-82
2023/05/22 05:12:37;;;;;;;;;;;;;;;20.86;47.44;100714.52;103522;1285;63271;-83
2023/05/22 05:15:02;;;;;;;;;;;;;;;20.87;47.42;100714.81;103614;1285;62207;-82
2023/05/22 05:17:28;;;;;;;;;;;;;;;20.88;47.43;100716.36;103697;1285;62199;-82
2023/05/22 05:19:53;;;;;;;;;;;;;;;20.90;47.46;100716.91;103722;1288;73384;-82
2023/05/22 05:22:19;;;;;;;;;;;;;;;20.90;47.41;100715.18;103960;1285;62201;-82
2023/05/22 05:24:44;;;;;;;;;;;;;;;20.90;47.49;100718.01;103879;1285;62191;-81
2023/05/22 05:27:10;;;;;;;;;;;;;;;20.91;47.43;100715.24;104072;1285;62270;-82
2023/05/22 05:29:35;;;;;;;;;;;;;;;20.91;47.52;100714.86;103995;1285;62246;-82
2023/05/22 05:32:02;;;;;;;;;;;;;;;20.91;47.30;100717.36;103871;1285;73537;-81
2023/05/22 05:34:28;;;;;;;;;;;;;;;20.92;47.48;100714.44;104248;1288;76183;-82
2023/05/22 05:36:56;;;;;;;;;;;;;;;20.93;47.40;100711.33;103796;1287;63791;-81
2023/05/22 05:39:21;;;;;;;;;;;;;;;20.95;47.33;100709.48;104224;1285;62111;-82
2023/05/22 05:41:47;;;;;;;;;;;;;;;20.96;47.38;100713.12;103986;1285;62207;-82
2023/05/22 05:44:12;;;;;;;;;;;;;;;20.97;47.37;100710.36;104188;1285;62297;-82
2023/05/22 05:46:37;;;;;;;;;;;;;;;20.97;47.36;100716.23;103935;1285;62171;-81
2023/05/22 05:49:08;;;;;;;;;;;;;;;20.98;47.34;100709.91;104184;1284;62227;-81
2023/05/22 05:51:35;;;;;;;;;;;;;;;21.00;47.36;100716.08;103793;1285;62157;-82
2023/05/22 05:54:00;;;;;;;;;;;;;;;21.01;47.35;100710.10;103943;1288;62383;-83
2023/05/22 05:56:26;;;;;;;;;;;;;;;21.02;47.18;100713.05;104304;1285;62312;-81
2023/05/22 05:58:51;;;;;;;;;;;;;;;21.03;47.35;100713.68;104088;1284;62237;-81
2023/05/22 06:01:17;;;;;;;;;;;;;;;21.04;47.23;100716.64;103875;1285;62240;-82
2023/05/22 06:03:43;;;;;;;;;;;;;;;21.06;47.30;100718.52;103960;1285;62308;-81
2023/05/22 06:06:09;;;;;;;;;;;;;;;21.07;47.24;100723.98;104109;1291;62232;-81
2023/05/22 06:08:35;;;;;;;;;;;;;;;21.08;47.18;100719.58;104055;1288;75262;-81
2023/05/22 06:11:02;;;;;;;;;;;;;;;21.09;47.09;100720.56;103813;1286;63293;-81
2023/05/22 06:13:27;;;;;;;;;;;;;;;21.11;47.10;100725.11;104345;1285;62192;-81
2023/05/22 06:15:53;;;;;;;;;;;;;;;21.12;47.05;100728.25;104164;1288;62172;-82
2023/05/22 06:18:19;;;;;;;;;;;;;;;21.13;47.17;100726.94;104109;1285;62161;-81
2023/05/22 06:20:45;;;;;;;;;;;;;;;21.14;46.95;100723.98;104295;1290;62115;-81
2023/05/22 06:23:11;;;;;;;;;;;;;;;21.15;47.03;100724.98;104306;1287;62281;-82
2023/05/22 06:25:38;;;;;;;;;;;;;;;21.16;47.09;100722.23;104060;1285;62181;-82
2023/05/22 06:28:04;;;;;;;;;;;;;;;21.17;46.91;100726.30;104447;1285;72646;-82
2023/05/22 06:30:30;;;;;;;;;;;;;;;21.18;46.84;100721.06;104188;1285;63404;-82
2023/05/22 06:32:55;;;;;;;;;;;;;;;21.19;46.82;100724.38;104126;1284;62284;-82
2023/05/22 06:35:21;;;;;;;;;;;;;;;21.19;46.78;100729.14;104231;1285;63228;-82
2023/05/22 06:37:46;;;;;;;;;;;;;;;21.20;46.76;100731.98;104327;1288;62129;-83
2023/05/22 06:40:12;;;;;;;;;;;;;;;21.21;46.71;100733.89;104148;1285;62195;-83
2023/05/22 06:42:38;;;;;;;;;;;;;;;21.20;46.45;100734.48;104169;1285;62966;-83
2023/05/22 06:45:03;;;;;;;;;;;;;;;21.19;46.57;100733.65;103891;1284;62203;-84
2023/05/22 06:47:29;;;;;;;;;;;;;;;21.19;46.41;100732.78;104222;1284;62178;-83
2023/05/22 06:49:55;;;;;;;;;;;;;;;21.19;46.37;100729.50;104181;1285;62273;-83
2023/05/22 06:52:20;;;;;;;;;;;;;;;21.20;46.29;100727.34;104225;1284;62189;-83
2023/05/22 06:54:46;;;;;;;;;;;;;;;21.20;46.24;100728.58;104338;1285;62708;-81
2023/05/22 06:57:11;;;;;;;;;;;;;;;21.21;46.23;100734.39;104196;1285;62418;-81
2023/05/22 06:59:37;;;;;;;;;;;;;;;21.22;46.22;100735.77;104425;1284;62118;-82
2023/05/22 07:02:02;;;;;;;;;;;;;;;21.22;46.03;100731.46;104016;1285;62178;-81
2023/05/22 07:04:28;;;;;;;;;;;;;;;21.23;46.12;100732.28;104192;1285;62267;-81
2023/05/22 07:06:54;;;;;;;;;;;;;;;21.23;46.02;100727.41;104172;1290;645150;-81
2023/05/22 07:09:19;;;;;;;;;;;;;;;21.25;46.15;100724.45;104345;1284;62148;-81
2023/05/22 07:11:45;;;;;;;;;;;;;;;21.25;46.03;100724.42;104254;1289;62224;-81
2023/05/22 07:14:13;;;;;;;;;;;;;;;21.26;46.02;100723.84;104189;1285;62208;-81
2023/05/22 07:16:39;;;;;;;;;;;;;;;21.26;46.02;100726.85;104245;1285;63260;-82
2023/05/22 07:19:05;;;;;;;;;;;;;;;21.27;46.05;100725.75;104004;1291;62303;-82
2023/05/22 07:21:31;;;;;;;;;;;;;;;21.27;46.07;100724.82;104014;1285;63359;-81
2023/05/22 07:23:56;;;;;;;;;;;;;;;21.27;46.02;100727.31;104012;1291;62219;-81
2023/05/22 07:26:26;;;;;;;;;;;;;;;21.28;45.87;100723.14;103994;1285;75460;-81
2023/05/22 07:28:52;;;;;;;;;;;;;;;21.29;45.91;100726.50;104172;1284;62185;-82
2023/05/22 07:31:17;;;;;;;;;;;;;;;21.30;45.99;100725.17;104191;1285;62167;-82
2023/05/22 07:33:43;;;;;;;;;;;;;;;21.30;45.97;100725.16;103979;1291;62268;-82
2023/05/22 07:36:09;;;;;;;;;;;;;;;21.31;46.12;100722.09;104009;1285;62198;-82
2023/05/22 07:38:35;;;;;;;;;;;;;;;21.31;45.93;100727.21;103989;1284;76215;-81
2023/05/22 07:41:03;;;;;;;;;;;;;;;21.32;45.96;100724.46;103807;1286;62317;-83
2023/05/22 07:43:29;;;;;;;;;;;;;;;21.32;46.08;100728.41;103885;1285;62066;-82
2023/05/22 07:45:55;;;;;;;;;;;;;;;21.32;45.80;100728.59;104406;1284;62067;-82
2023/05/22 07:48:20;;;;;;;;;;;;;;;21.32;45.89;100727.20;104501;1285;62124;-82
2023/05/22 07:50:46;;;;;;;;;;;;;;;21.32;45.83;100726.61;104172;1285;62181;-82
2023/05/22 07:53:15;;;;;;;;;;;;;;;21.32;46.02;100724.51;104253;1285;62181;-82
2023/05/22 07:55:41;;;;;;;;;;;;;;;21.32;45.93;100727.92;104716;1285;63593;-82
2023/05/22 07:58:07;;;;;;;;;;;;;;;21.31;45.97;100731.70;104548;1284;62205;-80
2023/05/22 08:00:32;;;;;;;;;;;;;;;21.31;45.96;100733.65;104376;1285;60396;-80
2023/05/22 08:02:59;;;;;;;;;;;;;;;21.32;46.06;100737.03;104553;1285;62197;-81
2023/05/22 08:05:24;;;;;;;;;;;;;;;21.32;46.06;100733.96;104401;1284;62283;-80
2023/05/22 08:07:50;;;;;;;;;;;;;;;21.32;46.11;100733.98;104755;1285;62213;-80
2023/05/22 08:10:16;;;;;;;;;;;;;;;21.32;46.03;100735.41;104753;1284;75277;-81
2023/05/22 08:12:41;;;;;;;;;;;;;;;21.32;46.02;100730.88;104524;1285;60933;-81
2023/05/22 08:15:07;;;;;;;;;;;;;;;21.32;46.10;100730.36;104504;1284;62156;-81
2023/05/22 08:17:32;;;;;;;;;;;;;;;21.32;45.97;100730.90;104243;1286;62125;-81
2023/05/22 08:19:58;;;;;;;;;;;;;;;21.32;45.87;100731.63;104302;1285;62236;-81
2023/05/22 08:22:23;;;;;;;;;;;;;;;21.32;45.90;100731.30;104205;1285;75481;-81
2023/05/22 08:24:49;;;;;;;;;;;;;;;21.32;45.91;100728.63;103877;1291;62210;-81
2023/05/22 08:27:14;;;;;;;;;;;;;;;21.32;45.91;100731.29;104127;1285;62185;-81
2023/05/22 08:29:42;;;;;;;;;;;;;;;21.31;45.99;100729.02;104111;1285;62085;-81
2023/05/22 08:32:07;;;;;;;;;;;;;;;21.32;45.89;100728.08;103937;1285;62195;-82
2023/05/22 08:34:34;;;;;;;;;;;;;;;21.32;45.85;100727.58;104035;1287;62163;-83
2023/05/22 08:36:59;;;;;;;;;;;;;;;21.31;45.92;100724.95;103800;1284;62565;-82
2023/05/22 08:39:25;;;;;;;;;;;;;;;21.30;45.83;100724.47;103792;1289;62221;-83
2023/05/22 08:41:50;;;;;;;;;;;;;;;21.29;45.89;100726.33;103764;1285;62443;-82
2023/05/22 08:44:18;;;;;;;;;;;;;;;21.28;45.81;100729.95;103543;1285;62284;-83
2023/05/22 08:46:44;;;;;;;;;;;;;;;21.28;45.77;100730.00;103781;1285;62113;-83
2023/05/22 08:49:12;;;;;;;;;;;;;;;21.26;45.75;100727.95;103654;1286;62348;-82
2023/05/22 08:51:38;;;;;;;;;;;;;;;21.26;45.69;100729.40;103845;1284;72512;-82
2023/05/22 08:54:04;;;;;;;;;;;;;;;21.25;45.76;100724.08;103790;1285;62476;-83
2023/05/22 08:56:30;;;;;;;;;;;;;;;21.25;45.67;100719.94;103797;1286;62124;-83
2023/05/22 08:58:56;;;;;;;;;;;;;;;21.26;45.63;100720.94;103916;1290;62258;-82
2023/05/22 09:01:21;;;;;;;;;;;;;;;21.27;45.72;100723.20;103643;1291;62312;-83
2023/05/22 09:03:49;;;;;;;;;;;;;;;21.27;45.70;100721.97;103678;1285;62207;-82
2023/05/22 09:06:16;;;;;;;;;;;;;;;21.26;45.80;100720.20;103675;1285;62218;-82
2023/05/22 09:08:42;;;;;;;;;;;;;;;21.28;45.68;100726.90;103693;1285;62184;-83
2023/05/22 09:11:09;;;;;;;;;;;;;;;21.28;45.64;100717.96;103801;1285;62190;-83
2023/05/22 09:13:35;;;;;;;;;;;;;;;21.28;45.58;100714.94;103808;1285;63389;-83
2023/05/22 09:16:10;;;;;;;;;;;;;;;21.28;45.66;100713.67;103822;1285;62255;-82
2023/05/22 09:18:37;;;;;;;;;;;;;;;21.28;45.68;100713.88;104079;1288;62101;-83
2023/05/22 09:21:03;;;;;;;;;;;;;;;21.27;45.70;100707.11;103903;1284;62089;-83
2023/05/22 09:23:28;;;;;;;;;;;;;;;21.27;45.64;100706.58;103762;1286;62676;-83
2023/05/22 09:25:57;;;;;;;;;;;;;;;21.28;45.66;100709.75;103720;1285;62194;-84
2023/05/22 09:28:23;;;;;;;;;;;;;;;21.28;45.71;100705.30;103815;1286;62201;-82
2023/05/22 09:30:52;;;;;;;;;;;;;;;21.28;45.65;100704.02;104118;1288;62583;-81
2023/05/22 09:33:18;;;;;;;;;;;;;;;21.28;45.86;100704.23;103841;1286;75370;-82
2023/05/22 09:35:46;;;;;;;;;;;;;;;21.27;45.73;100704.27;103939;1285;62134;-81
2023/05/22 09:38:11;;;;;;;;;;;;;;;21.26;45.78;100698.02;104074;1285;62185;-82
2023/05/22 09:40:37;;;;;;;;;;;;;;;21.27;45.87;100695.34;103844;1288;62198;-82
2023/05/22 09:43:07;;;;;;;;;;;;;;;21.26;45.78;100700.37;103584;1284;63168;-83
2023/05/22 09:45:36;;;;;;;;;;;;;;;21.26;45.72;100699.65;103664;1288;62090;-83
2023/05/22 09:48:02;;;;;;;;;;;;;;;21.26;45.77;100698.21;103640;1286;62549;-83
2023/05/22 09:50:28;;;;;;;;;;;;;;;21.26;45.79;100696.62;103627;1285;62618;-84
2023/05/22 09:52:53;;;;;;;;;;;;;;;21.25;45.73;100692.56;103561;1285;63253;-83
2023/05/22 09:55:22;;;;;;;;;;;;;;;21.25;45.82;100692.43;103835;1285;62113;-82
2023/05/22 09:57:50;;;;;;;;;;;;;;;21.25;45.84;100690.08;103788;1284;62118;-82
2023/05/22 10:00:18;;;;;;;;;;;;;;;21.25;45.84;100691.89;103712;1285;73467;-82
2023/05/22 10:02:44;;;;;;;;;;;;;;;21.25;45.89;100688.13;103732;1285;75095;-83
2023/05/22 10:05:10;;;;;;;;;;;;;;;21.24;45.88;100684.74;103840;1285;62307;-83
2023/05/22 10:07:36;;;;;;;;;;;;;;;21.25;45.71;100687.60;103646;1285;62158;-82
2023/05/22 10:10:08;;;;;;;;;;;;;;;21.25;45.87;100684.01;103735;1285;62226;-83
2023/05/22 10:12:36;;;;;;;;;;;;;;;21.24;45.76;100684.77;103601;1284;75345;-84
2023/05/22 10:15:01;;;;;;;;;;;;;;;21.24;45.80;100686.41;103602;1286;62235;-83
2023/05/22 10:17:28;;;;;;;;;;;;;;;21.23;45.78;100682.86;103755;1288;63325;-82
2023/05/22 10:19:53;;;;;;;;;;;;;;;21.23;45.82;100680.35;103716;1291;62584;-83
2023/05/22 10:22:21;;;;;;;;;;;;;;;21.23;45.93;100675.20;103520;1285;62256;-83
2023/05/22 10:24:49;;;;;;;;;;;;;;;21.22;45.96;100672.17;103676;1285;62414;-82
2023/05/22 10:27:15;;;;;;;;;;;;;;;21.22;45.83;100672.01;103595;1285;62130;-83
2023/05/22 10:29:50;;;;;;;;;;;;;;;21.22;45.85;100673.45;103534;1289;62219;-83
2023/05/22 10:32:34;;;;;;;;;;;;;;;21.22;45.85;100668.10;103533;1285;77237;-82
2023/05/22 10:35:05;;;;;;;;;;;;;;;21.22;45.80;100667.59;103612;1285;62194;-83
2023/05/22 10:37:30;;;;;;;;;;;;;;;21.22;45.79;100660.09;103522;1285;62151;-82
2023/05/22 10:39:59;;;;;;;;;;;;;;;21.21;45.79;100655.45;103867;1284;62222;-82
2023/05/22 10:42:30;;;;;;;;;;;;;;;21.21;45.84;100655.11;103994;1284;76219;-82
2023/05/22 10:44:55;;;;;;;;;;;;;;;21.21;45.80;100659.95;103736;1285;62171;-83
2023/05/22 10:47:21;;;;;;;;;;;;;;;21.21;45.88;100654.77;103706;1285;62867;-83
2023/05/22 10:49:48;;;;;;;;;;;;;;;21.21;45.87;100656.02;103757;1285;62214;-81
2023/05/22 10:52:14;;;;;;;;;;;;;;;21.21;45.83;100652.44;103801;1285;62181;-83
2023/05/22 10:54:43;;;;;;;;;;;;;;;21.21;45.81;100647.95;103815;1285;62259;-83
2023/05/22 10:57:11;;;;;;;;;;;;;;;21.21;45.90;100651.17;103783;1285;62229;-83
2023/05/22 10:59:36;;;;;;;;;;;;;;;21.21;45.77;100647.23;104268;1285;72266;-83
2023/05/22 11:02:02;;;;;;;;;;;;;;;21.21;45.84;100648.48;103448;1291;62226;-83
2023/05/22 11:04:27;;;;;;;;;;;;;;;21.22;45.84;100652.36;103676;1285;62223;-83
2023/05/22 11:07:13;;;;;;;;;;;;;;;21.22;45.80;100645.18;103617;1288;62116;-83
2023/05/22 11:09:42;;;;;;;;;;;;;;;21.22;45.86;100637.84;103763;1288;73317;-82
2023/05/22 11:12:11;;;;;;;;;;;;;;;21.22;45.75;100637.12;103779;1284;76357;-83
2023/05/22 11:14:37;;;;;;;;;;;;;;;21.22;45.91;100633.01;104024;1287;62146;-82
2023/05/22 11:17:04;;;;;;;;;;;;;;;21.22;45.81;100632.83;103951;1284;63475;-82
2023/05/22 11:19:29;;;;;;;;;;;;;;;21.22;45.88;100631.90;103750;1290;62197;-82
2023/05/22 11:21:56;;;;;;;;;;;;;;;21.23;45.91;100632.77;103621;1285;62762;-82
2023/05/22 11:24:21;;;;;;;;;;;;;;;21.23;45.81;100629.17;103640;1285;62214;-83
2023/05/22 11:26:59;;;;;;;;;;;;;;;21.23;45.80;100631.84;103684;1285;62611;-83
2023/05/22 11:29:26;;;;;;;;;;;;;;;21.23;45.87;100625.79;103487;1285;72630;-82
2023/05/22 11:31:52;;;;;;;;;;;;;;;21.23;45.93;100623.27;103627;1288;75283;-83
2023/05/22 11:34:17;;;;;;;;;;;;;;;21.23;45.91;100627.02;103476;1291;63628;-82
2023/05/22 11:36:43;;;;;;;;;;;;;;;21.23;45.73;100621.13;103493;1285;62264;-84
2023/05/22 11:39:08;;;;;;;;;;;;;;;21.23;45.86;100618.25;103563;1291;62233;-83
2023/05/22 11:41:34;;;;;;;;;;;;;;;21.24;45.98;100621.45;103570;1286;62265;-83
2023/05/22 11:44:00;;;;;;;;;;;;;;;21.23;45.92;100622.38;103766;1285;76242;-82
2023/05/22 11:46:26;;;;;;;;;;;;;;;21.23;45.90;100620.95;104039;1285;62155;-82
2023/05/22 11:48:53;;;;;;;;;;;;;;;21.23;45.88;100616.13;104021;1285;62191;-82
2023/05/22 11:51:19;;;;;;;;;;;;;;;21.23;45.82;100621.48;103926;1286;62865;-82
2023/05/22 11:53:45;;;;;;;;;;;;;;;21.23;45.83;100622.35;103921;1285;62159;-81
2023/05/22 11:56:11;;;;;;;;;;;;;;;21.24;45.97;100615.17;104095;1286;62904;-82
2023/05/22 11:58:36;;;;;;;;;;;;;;;21.24;45.86;100611.77;103700;1284;63287;-82
2023/05/22 12:01:03;;;;;;;;;;;;;;;21.24;45.91;100609.05;103709;1286;62233;-83
2023/05/22 12:03:29;;;;;;;;;;;;;;;21.24;45.99;100610.84;103746;1285;72995;-83
2023/05/22 12:05:55;;;;;;;;;;;;;;;21.24;45.97;100609.79;103716;1285;62289;-82
2023/05/22 12:08:21;;;;;;;;;;;;;;;21.24;45.87;100604.23;104007;1285;62517;-83
2023/05/22 12:10:48;;;;;;;;;;;;;;;21.24;45.88;100604.39;104038;1284;62204;-83
2023/05/22 12:13:13;;;;;;;;;;;;;;;21.24;46.00;100604.92;103759;1285;62679;-83
2023/05/22 12:15:39;;;;;;;;;;;;;;;21.24;45.78;100599.20;103904;1285;62202;-82
2023/05/22 12:18:08;;;;;;;;;;;;;;;21.25;45.72;100594.14;103897;1285;62235;-82
2023/05/22 12:20:34;;;;;;;;;;;;;;;21.25;45.83;100586.48;103721;1285;62242;-83
2023/05/22 12:22:59;;;;;;;;;;;;;;;21.25;45.90;100586.60;103634;1286;62967;-83